Time;durP1;ratioP1;P1;durP2;ratioP2;P2;SDS_P1;SDS_P2;PMS_P1;PMS_P2;Temp;Humidity;BMP_temperature;BMP_pressure;BME280_temperature;BME280_humidity;BME280_pressure;Samples;Min_cycle;Max_cycle;Signal;HPM_P1;HPM_P2
2022/02/17 00:00:41;;;;;;;0.10;0.10;;;11.60;79.40;;;;;;5137027;27;20023;-77
2022/02/17 00:03:08;;;;;;;0.15;0.10;;;11.60;79.10;;;;;;5136924;27;20023;-77
2022/02/17 00:05:33;;;;;;;0.10;0.10;;;11.50;79.30;;;;;;5136850;27;20375;-76
2022/02/17 00:08:00;;;;;;;0.25;0.10;;;11.50;79.00;;;;;;5136834;27;20024;-77
2022/02/17 00:10:27;;;;;;;0.40;0.00;;;11.50;78.80;;;;;;5136702;27;20030;-77
2022/02/17 00:12:56;;;;;;;0.00;0.00;;;11.60;78.60;;;;;;5136677;27;20034;-77
2022/02/17 00:15:22;;;;;;;0.08;0.05;;;11.60;78.10;;;;;;5136453;27;20085;-77
2022/02/17 00:17:48;;;;;;;0.00;0.00;;;11.70;77.50;;;;;;5136584;27;20383;-77
2022/02/17 00:20:13;;;;;;;0.10;0.10;;;11.60;77.30;;;;;;5136634;27;20016;-78
2022/02/17 00:22:39;;;;;;;0.00;0.00;;;11.60;76.90;;;;;;5136707;27;20087;-77
2022/02/17 00:25:06;;;;;;;0.10;0.03;;;11.70;76.30;;;;;;5136490;27;20042;-77
2022/02/17 00:27:32;;;;;;;0.10;0.10;;;11.70;75.40;;;;;;5136387;27;20015;-78
2022/02/17 00:29:58;;;;;;;0.20;0.10;;;11.70;75.50;;;;;;5136437;27;20352;-78
2022/02/17 00:32:23;;;;;;;0.38;0.20;;;11.70;75.60;;;;;;5136292;27;20031;-78
2022/02/17 00:34:49;;;;;;;0.55;0.20;;;11.80;74.90;;;;;;5136252;27;20024;-78
2022/02/17 00:37:14;;;;;;;0.30;0.10;;;11.80;74.20;;;;;;5136411;27;20103;-78
2022/02/17 00:39:40;;;;;;;0.20;0.10;;;11.80;74.20;;;;;;5136126;27;20471;-77
2022/02/17 00:42:06;;;;;;;3.25;0.10;;;11.80;74.20;;;;;;5136137;27;20072;-77
2022/02/17 00:44:32;;;;;;;0.00;0.00;;;11.80;74.10;;;;;;5117614;27;20023;-78
2022/02/17 00:46:57;;;;;;;0.40;0.00;;;11.90;73.60;;;;;;5136048;27;20031;-77
2022/02/17 00:49:24;;;;;;;0.13;0.00;;;11.90;73.60;;;;;;5135581;27;20023;-77
2022/02/17 00:51:49;;;;;;;0.10;0.00;;;11.80;74.30;;;;;;5135652;27;20460;-78
2022/02/17 00:54:15;;;;;;;0.05;0.00;;;11.80;74.50;;;;;;5135962;27;20049;-77
2022/02/17 00:56:41;;;;;;;0.17;0.10;;;11.80;74.70;;;;;;5135837;27;20027;-77
2022/02/17 00:59:06;;;;;;;0.05;0.00;;;11.70;75.00;;;;;;5135812;27;20036;-77
2022/02/17 01:01:32;;;;;;;0.08;0.08;;;11.70;74.90;;;;;;5135613;27;20027;-77
2022/02/17 01:03:57;;;;;;;0.00;0.00;;;11.70;75.40;;;;;;5135689;27;20026;-77
2022/02/17 01:06:23;;;;;;;0.10;0.00;;;11.70;75.00;;;;;;5135613;27;20031;-77
2022/02/17 01:08:49;;;;;;;0.00;0.00;;;11.70;75.00;;;;;;5135689;27;20108;-77
2022/02/17 01:11:14;;;;;;;0.00;0.00;;;11.70;74.90;;;;;;5135581;27;20024;-78
2022/02/17 01:13:40;;;;;;;0.38;0.10;;;11.80;74.80;;;;;;5135501;27;20070;-77
2022/02/17 01:16:06;;;;;;;0.00;0.00;;;11.80;74.90;;;;;;5135385;27;20043;-77
2022/02/17 01:18:32;;;;;;;0.43;0.10;;;11.80;74.90;;;;;;5135441;27;20049;-77
2022/02/17 01:20:58;;;;;;;0.00;0.00;;;11.70;75.30;;;;;;5135421;27;20539;-77
2022/02/17 01:23:24;;;;;;;0.00;0.00;;;11.80;74.80;;;;;;5135333;27;20088;-77
2022/02/17 01:25:50;;;;;;;0.20;0.10;;;11.80;74.70;;;;;;5135241;27;20057;-77
2022/02/17 01:28:16;;;;;;;0.00;0.00;;;11.80;74.90;;;;;;5135343;27;20019;-77
2022/02/17 01:30:42;;;;;;;0.10;0.08;;;11.70;75.20;;;;;;5135142;27;20364;-77
2022/02/17 01:33:08;;;;;;;0.00;0.00;;;11.70;75.20;;;;;;5135216;27;20058;-78
2022/02/17 01:35:33;;;;;;;0.13;0.00;;;11.70;75.40;;;;;;5135204;27;20019;-78
2022/02/17 01:37:59;;;;;;;0.00;0.00;;;11.70;75.40;;;;;;5116773;27;20027;-78
2022/02/17 01:40:25;;;;;;;1.00;0.00;;;11.70;75.50;;;;;;5135036;27;20382;-78
2022/02/17 01:42:50;;;;;;;0.00;0.00;;;11.70;75.70;;;;;;5135033;27;20023;-78
2022/02/17 01:45:16;;;;;;;0.10;0.00;;;11.70;76.00;;;;;;5134932;27;20027;-78
2022/02/17 01:47:46;;;;;;;0.00;0.00;;;11.60;76.10;;;;;;5134917;27;20026;-78
2022/02/17 01:50:12;;;;;;;0.00;0.00;;;11.60;76.30;;;;;;5116490;27;20026;-78
2022/02/17 01:52:38;;;;;;;0.10;0.10;;;11.60;76.10;;;;;;5134673;27;20031;-78
2022/02/17 01:55:04;;;;;;;0.10;0.00;;;11.70;76.10;;;;;;5134788;27;20023;-77
2022/02/17 01:57:30;;;;;;;0.10;0.10;;;11.60;76.50;;;;;;5134723;27;20027;-77
2022/02/17 01:59:56;;;;;;;0.00;0.00;;;11.60;76.70;;;;;;5134734;27;20198;-77
2022/02/17 02:02:22;;;;;;;0.05;0.00;;;11.60;76.60;;;;;;5116123;27;20042;-78
2022/02/17 02:04:48;;;;;;;0.28;0.05;;;11.60;76.80;;;;;;5134608;27;20460;-77
2022/02/17 02:07:14;;;;;;;0.00;0.00;;;11.60;77.00;;;;;;5134581;27;20024;-77
2022/02/17 02:09:40;;;;;;;0.20;0.00;;;11.60;77.40;;;;;;5134340;27;20042;-77
2022/02/17 02:12:07;;;;;;;0.00;0.00;;;11.50;77.60;;;;;;5134431;27;20022;-77
2022/02/17 02:14:33;;;;;;;0.08;0.00;;;11.60;77.20;;;;;;5134219;27;20126;-77
2022/02/17 02:16:59;;;;;;;0.00;0.00;;;11.60;77.30;;;;;;5134676;27;20041;-77
2022/02/17 02:19:25;;;;;;;0.00;0.00;;;11.60;77.40;;;;;;5134647;27;20487;-77
2022/02/17 02:21:50;;;;;;;0.00;0.00;;;11.50;77.50;;;;;;5134291;27;20027;-77
2022/02/17 02:24:16;;;;;;;0.00;0.00;;;11.50;77.70;;;;;;5134414;27;20375;-78
2022/02/17 02:26:41;;;;;;;0.20;0.00;;;11.50;77.80;;;;;;5134257;27;20046;-77
2022/02/17 02:29:07;;;;;;;0.20;0.20;;;11.50;78.50;;;;;;5134227;27;20027;-78
2022/02/17 02:31:33;;;;;;;0.00;0.00;;;11.40;78.20;;;;;;5134171;27;20023;-78
2022/02/17 02:33:59;;;;;;;0.05;0.00;;;11.40;78.60;;;;;;5134079;27;20475;-77
2022/02/17 02:36:25;;;;;;;0.10;0.10;;;11.40;78.60;;;;;;5134069;27;20045;-77
2022/02/17 02:38:51;;;;;;;0.10;0.10;;;11.40;78.90;;;;;;5134135;27;20041;-77
2022/02/17 02:41:17;;;;;;;0.00;0.00;;;11.40;79.00;;;;;;5134305;27;20023;-77
2022/02/17 02:43:42;;;;;;;0.73;0.00;;;11.30;79.90;;;;;;5117273;28;20066;-77
2022/02/17 02:46:08;;;;;;;0.10;0.00;;;11.30;79.80;;;;;;5134845;28;20015;-76
2022/02/17 02:48:34;;;;;;;0.00;0.00;;;11.20;80.10;;;;;;5134264;28;20040;-76
2022/02/17 02:51:00;;;;;;;0.00;0.00;;;11.30;79.80;;;;;;5133941;28;20023;-77
2022/02/17 02:53:25;;;;;;;0.57;0.00;;;11.20;79.60;;;;;;5133865;28;20080;-77
2022/02/17 02:55:51;;;;;;;0.00;0.00;;;11.30;79.50;;;;;;5133963;28;20019;-76
2022/02/17 02:58:18;;;;;;;0.00;0.00;;;11.30;79.70;;;;;;5134112;28;20031;-76
2022/02/17 03:00:46;;;;;;;0.03;0.03;;;11.30;79.60;;;;;;5133838;28;20027;-78
2022/02/17 03:03:12;;;;;;;0.65;0.00;;;11.30;79.90;;;;;;5133814;28;20465;-77
2022/02/17 03:05:39;;;;;;;0.00;0.00;;;11.30;79.70;;;;;;5133713;28;20072;-77
2022/02/17 03:08:05;;;;;;;0.00;0.00;;;11.30;79.90;;;;;;5133913;28;20542;-79
2022/02/17 03:10:30;;;;;;;0.13;0.10;;;11.30;80.00;;;;;;5133751;28;20156;-78
2022/02/17 03:12:57;;;;;;;0.22;0.00;;;11.30;80.30;;;;;;5134260;27;20035;-78
2022/02/17 03:15:23;;;;;;;1.35;0.00;;;11.40;80.10;;;;;;5137634;27;20390;-77
2022/02/17 03:17:50;;;;;;;0.35;0.00;;;11.30;80.70;;;;;;5137812;27;20023;-78
2022/02/17 03:20:16;;;;;;;0.15;0.00;;;11.30;81.00;;;;;;5137809;27;20015;-78
2022/02/17 03:22:42;;;;;;;0.00;0.00;;;11.30;81.60;;;;;;5137674;27;20028;-78
2022/02/17 03:25:10;;;;;;;0.03;0.00;;;11.30;82.00;;;;;;5137817;27;20026;-77
2022/02/17 03:27:36;;;;;;;0.08;0.00;;;11.20;82.30;;;;;;5137622;27;20051;-78
2022/02/17 03:30:07;;;;;;;0.00;0.00;;;11.20;82.40;;;;;;5137636;27;20027;-78
2022/02/17 03:32:34;;;;;;;0.10;0.08;;;11.20;82.60;;;;;;5137482;27;20037;-79
2022/02/17 03:35:00;;;;;;;0.05;0.00;;;11.20;82.40;;;;;;5137546;27;20053;-77
2022/02/17 03:37:25;;;;;;;0.00;0.00;;;11.30;82.40;;;;;;5137452;27;20019;-78
2022/02/17 03:39:51;;;;;;;0.10;0.00;;;11.20;82.40;;;;;;5137389;27;20023;-77
2022/02/17 03:42:16;;;;;;;0.22;0.00;;;11.20;82.80;;;;;;5118941;27;20027;-78
2022/02/17 03:44:42;;;;;;;0.00;0.00;;;11.20;82.90;;;;;;5137390;27;20028;-78
2022/02/17 03:47:08;;;;;;;1.45;0.00;;;11.20;82.70;;;;;;5137286;27;20023;-78
2022/02/17 03:49:34;;;;;;;0.00;0.00;;;11.20;83.40;;;;;;5137174;27;20069;-78
2022/02/17 03:51:59;;;;;;;0.00;0.00;;;11.20;82.50;;;;;;5137111;27;20023;-78
2022/02/17 03:54:25;;;;;;;0.00;0.00;;;11.20;82.30;;;;;;5137069;27;20038;-77
2022/02/17 03:56:50;;;;;;;0.10;0.00;;;11.40;81.80;;;;;;5137174;27;20098;-78
2022/02/17 03:59:16;;;;;;;0.00;0.00;;;11.30;81.80;;;;;;5137084;27;20024;-79
2022/02/17 04:01:41;;;;;;;0.10;0.10;;;11.30;81.90;;;;;;5137661;27;20023;-79
2022/02/17 04:04:09;;;;;;;0.15;0.00;;;11.40;81.50;;;;;;5137250;27;20360;-78
2022/02/17 04:06:35;;;;;;;0.10;0.00;;;11.40;81.60;;;;;;5136619;27;20015;-76
2022/02/17 04:09:02;;;;;;;0.88;0.20;;;11.30;81.30;;;;;;5136939;27;20019;-78
2022/02/17 04:11:28;;;;;;;0.28;0.10;;;11.40;81.30;;;;;;5136691;27;20402;-77
2022/02/17 04:13:54;;;;;;;0.05;0.00;;;11.30;81.70;;;;;;5136576;27;20027;-77
2022/02/17 04:16:20;;;;;;;0.00;0.00;;;11.30;81.80;;;;;;5136460;27;20058;-76
2022/02/17 04:18:47;;;;;;;0.00;0.00;;;11.30;81.30;;;;;;5136657;27;20023;-75
2022/02/17 04:21:14;;;;;;;0.32;0.08;;;11.30;81.30;;;;;;5136633;27;20026;-76
2022/02/17 04:23:44;;;;;;;0.30;0.10;;;11.30;81.20;;;;;;5136474;27;20494;-76
2022/02/17 04:26:11;;;;;;;0.00;0.00;;;11.40;81.10;;;;;;5135415;27;20046;-75
2022/02/17 04:28:37;;;;;;;1.45;0.15;;;11.30;80.80;;;;;;5117960;27;20020;-77
2022/02/17 04:31:02;;;;;;;0.00;0.00;;;11.40;80.40;;;;;;5136412;27;20023;-75
2022/02/17 04:33:28;;;;;;;0.00;0.00;;;11.30;80.70;;;;;;5136368;27;20027;-75
2022/02/17 04:35:53;;;;;;;0.35;0.13;;;11.30;80.80;;;;;;5136236;27;20040;-75
2022/02/17 04:38:19;;;;;;;0.00;0.00;;;11.30;80.60;;;;;;5136203;27;20027;-77
2022/02/17 04:43:29;;;;;;;0.10;0.00;;;11.40;79.80;;;;;;5136125;27;20153;-77
2022/02/17 04:45:54;;;;;;;0.10;0.10;;;11.40;79.80;;;;;;5136096;27;20076;-76
2022/02/17 04:48:20;;;;;;;0.00;0.00;;;11.40;79.60;;;;;;5135942;27;20027;-76
2022/02/17 04:50:46;;;;;;;0.15;0.00;;;11.40;79.70;;;;;;5135888;27;20019;-76
2022/02/17 04:53:11;;;;;;;0.10;0.00;;;11.40;78.50;;;;;;5135872;27;20027;-76
2022/02/17 04:55:37;;;;;;;0.15;0.00;;;11.40;77.80;;;;;;5135840;27;20031;-77
2022/02/17 04:58:03;;;;;;;0.30;0.10;;;11.50;77.30;;;;;;5135775;27;20023;-77
2022/02/17 05:00:29;;;;;;;0.00;0.00;;;11.50;77.40;;;;;;5135711;27;20384;-77
2022/02/17 05:02:54;;;;;;;0.00;0.00;;;11.60;77.20;;;;;;5117315;27;20049;-77
2022/02/17 05:05:20;;;;;;;0.28;0.20;;;11.60;76.60;;;;;;5135615;27;20031;-77
2022/02/17 05:07:45;;;;;;;1.45;0.00;;;11.70;76.50;;;;;;5135710;27;21201;-77
2022/02/17 05:10:11;;;;;;;0.20;0.00;;;11.60;76.30;;;;;;5135639;27;20019;-77
2022/02/17 05:12:36;;;;;;;0.13;0.03;;;11.70;76.10;;;;;;5135471;27;20121;-78
2022/02/17 05:15:02;;;;;;;0.00;0.00;;;11.70;76.20;;;;;;5135426;27;20075;-77
2022/02/17 05:17:28;;;;;;;0.20;0.10;;;11.70;76.20;;;;;;5135497;27;20467;-77
2022/02/17 05:19:53;;;;;;;1.08;0.15;;;11.70;76.40;;;;;;5135455;27;20023;-77
2022/02/17 05:22:19;;;;;;;0.10;0.00;;;11.70;76.30;;;;;;5135380;27;20019;-77
2022/02/17 05:24:44;;;;;;;0.00;0.00;;;11.70;76.60;;;;;;5135286;27;20030;-77
2022/02/17 05:27:10;;;;;;;0.00;0.00;;;11.70;76.10;;;;;;5135353;27;20019;-77
2022/02/17 05:29:36;;;;;;;0.10;0.05;;;11.70;74.70;;;;;;5135215;27;20031;-76
2022/02/17 05:32:01;;;;;;;0.25;0.00;;;11.80;74.70;;;;;;5116991;27;20043;-77
2022/02/17 05:34:27;;;;;;;0.10;0.03;;;11.70;74.60;;;;;;5135101;27;20076;-77
2022/02/17 05:36:53;;;;;;;0.00;0.00;;;11.70;74.40;;;;;;5135005;27;20092;-78
2022/02/17 05:39:19;;;;;;;0.30;0.00;;;11.80;74.00;;;;;;5134905;27;20426;-77
2022/02/17 05:41:44;;;;;;;0.10;0.10;;;11.80;74.50;;;;;;5134954;27;20023;-77
2022/02/17 05:44:10;;;;;;;0.10;0.10;;;11.70;75.30;;;;;;5135197;27;20019;-76
2022/02/17 05:46:36;;;;;;;0.03;0.00;;;11.70;76.30;;;;;;5134841;27;20023;-77
2022/02/17 05:49:02;;;;;;;0.20;0.10;;;11.70;76.80;;;;;;5116227;27;20019;-77
2022/02/17 05:51:28;;;;;;;0.13;0.10;;;11.60;77.40;;;;;;5134770;27;20050;-77
2022/02/17 05:53:53;;;;;;;0.17;0.17;;;11.50;77.90;;;;;;5134563;27;20073;-77
2022/02/17 05:56:19;;;;;;;0.15;0.10;;;11.50;78.20;;;;;;5134900;27;20234;-77
2022/02/17 05:58:44;;;;;;;1.75;0.10;;;11.40;78.30;;;;;;5134763;27;20052;-77
2022/02/17 06:01:10;;;;;;;0.00;0.00;;;11.50;78.30;;;;;;5134762;27;20067;-77
2022/02/17 06:03:36;;;;;;;0.40;0.00;;;11.50;78.30;;;;;;5134651;27;20027;-78
2022/02/17 06:06:01;;;;;;;0.43;0.10;;;11.50;78.10;;;;;;5134513;27;20023;-78
2022/02/17 06:08:27;;;;;;;0.75;0.30;;;11.50;78.50;;;;;;5134393;27;20486;-78
2022/02/17 06:10:53;;;;;;;0.35;0.25;;;11.40;78.40;;;;;;5134296;27;20031;-78
2022/02/17 06:13:18;;;;;;;0.88;0.17;;;11.40;78.60;;;;;;5134211;27;20031;-76
2022/02/17 06:15:44;;;;;;;0.30;0.08;;;11.40;78.40;;;;;;5134104;27;20047;-77
2022/02/17 06:18:09;;;;;;;0.75;0.50;;;11.40;78.70;;;;;;5134130;27;20027;-77
2022/02/17 06:20:35;;;;;;;0.10;0.10;;;11.40;78.50;;;;;;5133931;27;20130;-77
2022/02/17 06:23:01;;;;;;;0.20;0.10;;;11.40;78.60;;;;;;5134135;27;20068;-78
2022/02/17 06:25:27;;;;;;;0.68;0.40;;;11.30;78.60;;;;;;5134014;27;20027;-77
2022/02/17 06:27:52;;;;;;;0.10;0.10;;;11.40;78.30;;;;;;5133786;27;20391;-78
2022/02/17 06:30:21;;;;;;;0.52;0.20;;;11.30;77.70;;;;;;5133684;27;20460;-78
2022/02/17 06:32:50;;;;;;;0.10;0.10;;;11.30;76.90;;;;;;5133961;27;20053;-78
2022/02/17 06:35:17;;;;;;;0.50;0.20;;;11.40;76.40;;;;;;5133701;27;20051;-77
2022/02/17 06:37:43;;;;;;;0.20;0.20;;;11.40;76.00;;;;;;5133530;27;20102;-77
2022/02/17 06:40:09;;;;;;;0.10;0.10;;;11.40;75.70;;;;;;5133736;27;20471;-77
2022/02/17 06:42:35;;;;;;;0.47;0.20;;;11.40;76.10;;;;;;5133733;27;20030;-77
2022/02/17 06:45:01;;;;;;;0.43;0.10;;;11.40;76.50;;;;;;5133749;27;20023;-78
2022/02/17 06:47:27;;;;;;;1.05;0.47;;;11.40;76.90;;;;;;5133363;27;20026;-77
2022/02/17 06:49:53;;;;;;;0.30;0.20;;;11.40;78.00;;;;;;5133533;28;20015;-77
2022/02/17 06:52:18;;;;;;;2.17;0.20;;;11.30;79.10;;;;;;5133631;28;20058;-78
2022/02/17 06:54:44;;;;;;;0.20;0.10;;;11.30;79.80;;;;;;5133580;28;20087;-77
2022/02/17 06:57:10;;;;;;;0.00;0.00;;;11.10;80.80;;;;;;5133533;28;20091;-77
2022/02/17 06:59:36;;;;;;;0.00;0.00;;;11.10;81.10;;;;;;5133482;28;20076;-77
2022/02/17 07:02:02;;;;;;;0.47;0.20;;;11.20;81.20;;;;;;5115198;28;20015;-77
2022/02/17 07:04:27;;;;;;;0.20;0.20;;;11.10;81.60;;;;;;5133460;28;20106;-77
2022/02/17 07:06:53;;;;;;;0.15;0.15;;;11.00;81.40;;;;;;5133497;28;20476;-78
2022/02/17 07:09:19;;;;;;;0.05;0.03;;;11.00;81.40;;;;;;5133537;28;20068;-78
2022/02/17 07:11:44;;;;;;;0.10;0.10;;;11.10;80.40;;;;;;5133485;28;20458;-79
2022/02/17 07:14:11;;;;;;;0.10;0.10;;;11.20;79.60;;;;;;5133256;28;20520;-79
2022/02/17 07:16:36;;;;;;;0.40;0.10;;;11.20;79.70;;;;;;5133553;28;20034;-79
2022/02/17 07:19:02;;;;;;;0.20;0.10;;;11.20;79.40;;;;;;5133236;28;20023;-78
2022/02/17 07:21:28;;;;;;;0.13;0.13;;;11.20;79.60;;;;;;5133130;28;20093;-80
2022/02/17 07:23:54;;;;;;;0.20;0.10;;;11.10;79.80;;;;;;5133386;28;20050;-78
2022/02/17 07:26:19;;;;;;;0.73;0.10;;;11.20;80.20;;;;;;5133232;28;20031;-79
2022/02/17 07:28:45;;;;;;;2.83;1.55;;;11.10;80.20;;;;;;5133220;28;20023;-80
2022/02/17 07:31:13;;;;;;;0.88;0.17;;;11.10;79.90;;;;;;5134479;28;20125;-84
2022/02/17 07:33:39;;;;;;;0.25;0.10;;;11.30;79.50;;;;;;5133464;28;20069;-82
2022/02/17 07:36:07;;;;;;;0.80;0.10;;;11.30;79.80;;;;;;5133445;28;20514;-79
2022/02/17 07:38:34;;;;;;;0.85;0.17;;;11.40;79.30;;;;;;5133086;28;20073;-82
2022/02/17 07:40:59;;;;;;;4.18;0.30;;;11.50;78.60;;;;;;5125251;28;20015;-80
2022/02/17 07:43:25;;;;;;;1.45;0.45;;;11.30;79.60;;;;;;5132907;28;20099;-82
2022/02/17 07:45:50;;;;;;;0.65;0.13;;;11.30;79.90;;;;;;5132975;28;20031;-81
2022/02/17 07:48:16;;;;;;;1.33;0.35;;;11.20;79.60;;;;;;5132764;28;20035;-82
2022/02/17 07:50:41;;;;;;;0.15;0.10;;;11.20;79.30;;;;;;5132748;28;20020;-80
2022/02/17 07:53:07;;;;;;;0.98;0.10;;;11.10;78.80;;;;;;5114502;28;20031;-82
2022/02/17 07:55:34;;;;;;;2.22;0.30;;;11.20;78.80;;;;;;5133196;28;20106;-79
2022/02/17 07:58:04;;;;;;;1.10;0.32;;;11.20;79.30;;;;;;5139423;28;20015;-80
2022/02/17 08:00:30;;;;;;;0.40;0.20;;;11.20;79.40;;;;;;5136838;27;20035;-78
2022/02/17 08:02:56;;;;;;;1.60;0.25;;;11.20;79.50;;;;;;5137723;27;20116;-83
2022/02/17 08:05:21;;;;;;;1.98;0.20;;;11.00;80.60;;;;;;5140116;27;20100;-77
2022/02/17 08:07:47;;;;;;;0.75;0.20;;;11.00;80.70;;;;;;5137524;27;20031;-87
2022/02/17 08:10:12;;;;;;;1.65;0.43;;;10.90;81.40;;;;;;5137801;27;20023;-82
2022/02/17 08:12:43;;;;;;;2.20;0.30;;;11.00;80.60;;;;;;5138777;27;20037;-83
2022/02/17 08:15:10;;;;;;;0.70;0.28;;;11.00;80.50;;;;;;5137740;27;20086;-87
2022/02/17 08:17:36;;;;;;;0.30;0.30;;;11.10;80.60;;;;;;5119139;27;20023;-82
2022/02/17 08:20:03;;;;;;;0.20;0.20;;;10.90;81.70;;;;;;5138169;27;20066;-83
2022/02/17 08:22:28;;;;;;;0.90;0.32;;;10.90;82.60;;;;;;5137131;27;20022;-79
2022/02/17 08:24:54;;;;;;;1.70;0.30;;;10.90;82.00;;;;;;5137098;27;20019;-82
2022/02/17 08:27:19;;;;;;;0.88;0.35;;;10.80;82.20;;;;;;5119095;27;20391;-83
2022/02/17 08:29:45;;;;;;;0.13;0.10;;;11.00;81.90;;;;;;5119374;27;20031;-83
2022/02/17 08:32:11;;;;;;;0.43;0.20;;;10.90;82.30;;;;;;5137697;27;20019;-84
2022/02/17 08:34:36;;;;;;;1.55;0.20;;;10.90;82.40;;;;;;5136770;27;20027;-82
2022/02/17 08:37:02;;;;;;;0.50;0.25;;;10.90;81.80;;;;;;5136994;27;20031;-80
2022/02/17 08:39:28;;;;;;;0.77;0.35;;;10.90;80.90;;;;;;5135896;27;20031;-79
2022/02/17 08:41:53;;;;;;;2.25;0.50;;;10.80;79.70;;;;;;5135619;27;20019;-83
2022/02/17 08:44:19;;;;;;;2.10;0.45;;;10.70;79.60;;;;;;5136376;27;20100;-80
2022/02/17 08:46:46;;;;;;;4.85;0.60;;;10.80;79.50;;;;;;5117519;27;20072;-82
2022/02/17 08:49:12;;;;;;;6.65;1.02;;;10.90;78.80;;;;;;5135995;27;20471;-82
2022/02/17 08:51:38;;;;;;;4.15;0.60;;;10.90;76.10;;;;;;5135922;27;20080;-81
2022/02/17 08:54:04;;;;;;;6.88;1.10;;;10.90;74.40;;;;;;5136045;27;20107;-82
2022/02/17 08:56:30;;;;;;;8.65;1.75;;;10.90;73.80;;;;;;5136061;27;20023;-81
2022/02/17 08:58:57;;;;;;;6.93;1.50;;;10.80;72.20;;;;;;5117647;27;20359;-81
2022/02/17 09:01:22;;;;;;;10.20;2.13;;;10.70;71.40;;;;;;5117049;27;20032;-81
2022/02/17 09:03:48;;;;;;;8.40;1.85;;;10.70;69.90;;;;;;5117172;27;20072;-79
2022/02/17 09:06:14;;;;;;;8.35;2.10;;;10.60;69.40;;;;;;5117078;27;20412;-78
2022/02/17 09:08:40;;;;;;;11.60;2.78;;;10.60;69.90;;;;;;5135343;27;20058;-79
2022/02/17 09:11:06;;;;;;;9.10;2.10;;;10.70;68.50;;;;;;5116405;27;20019;-79
2022/02/17 09:13:32;;;;;;;13.38;2.90;;;10.50;68.50;;;;;;5116884;27;20038;-78
2022/02/17 09:15:58;;;;;;;15.77;2.90;;;10.30;68.10;;;;;;5135171;27;20055;-79
2022/02/17 09:18:24;;;;;;;12.30;2.15;;;10.40;67.70;;;;;;5135318;27;20023;-79
2022/02/17 09:20:50;;;;;;;15.93;3.10;;;10.30;68.50;;;;;;5134953;27;20015;-79
2022/02/17 09:23:16;;;;;;;12.48;2.65;;;10.40;68.90;;;;;;5116884;27;20129;-79
2022/02/17 09:25:42;;;;;;;12.80;2.30;;;10.50;68.90;;;;;;5116854;27;20471;-81
2022/02/17 09:28:09;;;;;;;8.13;1.80;;;10.80;68.80;;;;;;5116739;27;20051;-81
2022/02/17 09:30:35;;;;;;;9.75;2.20;;;10.90;69.20;;;;;;5116629;27;20360;-79
2022/02/17 09:33:00;;;;;;;13.30;2.58;;;11.00;68.30;;;;;;5116605;27;20066;-80
2022/02/17 09:35:26;;;;;;;16.30;3.25;;;11.00;67.00;;;;;;5134933;27;20430;-80
2022/02/17 09:37:52;;;;;;;15.65;2.65;;;11.20;65.00;;;;;;5116620;27;20023;-79
2022/02/17 09:40:20;;;;;;;10.77;2.63;;;11.40;63.40;;;;;;5134671;27;20028;-79
2022/02/17 09:42:46;;;;;;;14.43;3.03;;;11.30;64.20;;;;;;5116658;27;20049;-80
2022/02/17 09:45:12;;;;;;;15.93;3.08;;;11.10;64.20;;;;;;5134932;27;20091;-78
2022/02/17 09:47:40;;;;;;;17.67;3.08;;;11.10;63.60;;;;;;5134676;27;20421;-78
2022/02/17 09:50:12;;;;;;;13.00;2.97;;;10.90;65.10;;;;;;5116026;27;20075;-79
2022/02/17 09:52:39;;;;;;;14.82;2.60;;;11.20;64.90;;;;;;5134590;27;20069;-79
2022/02/17 09:55:07;;;;;;;21.02;3.08;;;11.10;62.90;;;;;;5134433;27;20027;-79
2022/02/17 09:57:36;;;;;;;11.65;2.13;;;11.30;62.00;;;;;;5134461;27;20103;-80
2022/02/17 10:00:04;;;;;;;11.27;2.90;;;11.50;60.70;;;;;;5134272;27;20026;-79
2022/02/17 10:02:30;;;;;;;10.93;2.55;;;11.50;60.50;;;;;;5116055;27;20428;-81
2022/02/17 10:04:57;;;;;;;13.13;2.53;;;11.60;60.30;;;;;;5134285;27;20019;-76
2022/02/17 10:07:33;;;;;;;10.63;2.42;;;11.80;59.60;;;;;;5134220;27;20459;-78
2022/02/17 10:10:13;;;;;;;14.65;3.13;;;11.70;58.80;;;;;;5115850;27;20072;-79
2022/02/17 10:13:13;;;;;;;11.25;2.38;;;11.70;56.60;;;;;;5134171;27;20034;-79
2022/02/17 10:15:39;;;;;;;6.53;1.92;;;11.90;56.80;;;;;;5115829;27;20046;-78
2022/02/17 10:18:12;;;;;;;10.65;2.45;;;12.00;56.90;;;;;;5134083;27;20031;-79
2022/02/17 10:20:51;;;;;;;14.38;2.60;;;12.00;56.30;;;;;;5133941;27;20047;-80
2022/02/17 10:23:17;;;;;;;9.30;2.25;;;12.10;53.30;;;;;;5133097;27;20027;-79
2022/02/17 10:26:03;;;;;;;9.80;2.30;;;11.90;51.10;;;;;;5134003;27;20022;-76
2022/02/17 10:28:33;;;;;;;11.60;2.40;;;11.90;47.10;;;;;;5133946;27;20027;-78
2022/02/17 10:31:00;;;;;;;11.85;2.58;;;12.00;45.40;;;;;;5134120;27;20374;-79
2022/02/17 10:33:39;;;;;;;12.25;2.83;;;12.10;47.20;;;;;;5133703;27;20038;-79
2022/02/17 10:36:05;;;;;;;8.35;1.75;;;12.30;46.50;;;;;;5134107;27;20046;-79
2022/02/17 10:38:31;;;;;;;10.07;2.38;;;12.50;46.40;;;;;;5134056;27;20490;-77
2022/02/17 10:40:56;;;;;;;11.32;2.50;;;12.50;44.00;;;;;;5133972;27;20027;-79
2022/02/17 10:43:27;;;;;;;8.63;2.13;;;12.60;42.50;;;;;;5133919;27;20023;-77
2022/02/17 10:45:53;;;;;;;12.38;1.98;;;12.60;39.90;;;;;;5133946;27;20019;-79
2022/02/17 10:48:24;;;;;;;8.15;2.40;;;12.40;41.10;;;;;;5115270;28;20426;-79
2022/02/17 10:51:03;;;;;;;10.73;2.58;;;12.50;41.30;;;;;;5133905;28;20011;-78
2022/02/17 10:53:32;;;;;;;8.55;2.08;;;12.40;42.70;;;;;;5115412;28;20421;-79
2022/02/17 10:56:00;;;;;;;10.52;2.50;;;12.60;42.20;;;;;;5116874;28;20031;-78
2022/02/17 10:58:29;;;;;;;14.60;2.90;;;12.70;43.20;;;;;;5120496;28;20023;-78
2022/02/17 11:00:59;;;;;;;18.38;2.55;;;12.60;43.20;;;;;;5117163;28;20118;-79
2022/02/17 11:03:26;;;;;;;14.73;3.85;;;12.40;43.70;;;;;;5115711;28;20106;-81
2022/02/17 11:05:53;;;;;;;16.42;3.13;;;12.30;44.50;;;;;;5098273;28;20019;-82
2022/02/17 11:08:19;;;;;;;10.93;2.35;;;12.20;44.70;;;;;;5098227;28;20027;-78
2022/02/17 11:10:46;;;;;;;11.80;2.97;;;12.10;45.90;;;;;;5115100;28;20030;-78
2022/02/17 11:13:20;;;;;;;14.75;3.05;;;12.20;47.30;;;;;;5115113;28;20035;-78
2022/02/17 11:15:48;;;;;;;14.90;2.63;;;12.30;46.90;;;;;;5115248;28;20360;-79
2022/02/17 11:18:19;;;;;;;10.52;2.67;;;12.20;47.70;;;;;;5115032;28;20708;-78
2022/02/17 11:20:47;;;;;;;12.38;2.67;;;11.80;50.40;;;;;;5114992;28;20019;-75
2022/02/17 11:25:55;;;;;;;15.32;2.22;;;11.60;49.70;;;;;;5239337;22;20060;-79
2022/02/17 11:28:32;;;;;;;9.23;2.10;;;11.30;51.50;;;;;;5074476;28;20020;-80
2022/02/17 11:31:00;;;;;;;14.27;2.53;;;11.20;53.00;;;;;;5074444;28;20066;-79
2022/02/17 11:33:29;;;;;;;12.45;2.05;;;11.20;53.00;;;;;;5074372;28;20039;-79
2022/02/17 11:35:58;;;;;;;10.00;2.33;;;11.30;53.90;;;;;;5077968;28;20083;-79
2022/02/17 11:38:38;;;;;;;11.43;2.35;;;11.30;53.80;;;;;;5078108;28;20027;-79
2022/02/17 11:41:16;;;;;;;11.68;2.30;;;11.30;54.10;;;;;;5078093;28;20016;-78
2022/02/17 11:43:43;;;;;;;10.05;2.25;;;11.30;55.10;;;;;;5077789;28;20357;-78
2022/02/17 11:46:10;;;;;;;15.27;2.65;;;11.30;55.30;;;;;;5077889;28;20112;-79
2022/02/17 11:48:38;;;;;;;9.15;1.45;;;11.40;55.70;;;;;;5077476;28;20028;-77
2022/02/17 11:51:22;;;;;;;14.48;2.95;;;11.60;55.40;;;;;;5077412;28;20035;-77
2022/02/17 11:53:49;;;;;;;8.45;2.05;;;11.70;55.60;;;;;;5077219;28;20036;-77
2022/02/17 11:56:17;;;;;;;11.98;2.30;;;11.70;54.90;;;;;;5077370;28;20093;-77
2022/02/17 11:58:48;;;;;;;8.82;2.13;;;11.80;54.20;;;;;;5077146;28;20108;-77
2022/02/17 12:01:26;;;;;;;9.73;1.77;;;11.70;54.60;;;;;;5077862;28;20050;-77
2022/02/17 12:04:17;;;;;;;12.00;2.10;;;11.90;53.80;;;;;;5077952;28;20044;-78
2022/02/17 12:06:56;;;;;;;14.32;2.83;;;11.80;54.10;;;;;;5077539;28;20589;-80
2022/02/17 12:12:09;;;;;;;12.65;2.50;;;11.60;55.10;;;;;;5095288;28;20085;-79
2022/02/17 12:14:44;;;;;;;9.70;1.90;;;11.40;56.20;;;;;;5095386;28;20028;-80
2022/02/17 12:17:09;;;;;;;6.93;1.80;;;11.30;57.20;;;;;;5077495;28;20081;-78
2022/02/17 12:19:35;;;;;;;9.50;2.13;;;11.10;58.70;;;;;;5076922;28;20374;-78
2022/02/17 12:22:10;;;;;;;11.05;1.90;;;11.20;58.30;;;;;;5077520;28;20570;-77
2022/02/17 12:24:38;;;;;;;12.82;3.15;;;11.20;57.30;;;;;;5077262;28;20044;-78
2022/02/17 12:27:05;;;;;;;10.57;2.60;;;11.40;57.10;;;;;;5077078;28;20111;-80
2022/02/17 12:29:37;;;;;;;11.05;2.30;;;11.50;56.40;;;;;;5077045;28;20020;-78
2022/02/17 12:32:05;;;;;;;17.13;3.13;;;11.30;56.20;;;;;;5087439;28;20060;-80
2022/02/17 12:34:31;;;;;;;8.70;1.88;;;11.10;55.40;;;;;;5076408;28;20028;-79
2022/02/17 12:36:57;;;;;;;10.98;2.45;;;11.10;55.20;;;;;;5076602;28;20023;-79
2022/02/17 12:39:30;;;;;;;13.60;2.35;;;11.30;55.00;;;;;;5076513;28;20045;-76
2022/02/17 12:42:02;;;;;;;14.13;2.72;;;11.90;52.60;;;;;;5094792;28;20027;-78
2022/02/17 12:44:35;;;;;;;11.80;2.60;;;12.60;49.80;;;;;;5076697;28;20028;-77
2022/02/17 12:47:06;;;;;;;10.48;2.40;;;12.90;46.30;;;;;;5094119;28;20047;-77
2022/02/17 12:49:33;;;;;;;13.45;2.47;;;12.90;44.10;;;;;;5076640;28;20024;-77
2022/02/17 12:52:08;;;;;;;12.00;2.40;;;13.00;44.10;;;;;;5077001;28;20503;-76